sensor_id;sensor_type;location;lat;lon;timestamp;temperature;humidity
71237;DHT22;58984;51.960;5.582;2023-04-23T00:01:33;16.60;56.90
71237;DHT22;58984;51.960;5.582;2023-04-23T00:04:04;16.60;57.00
71237;DHT22;58984;51.960;5.582;2023-04-23T00:06:32;16.60;57.00
71237;DHT22;58984;51.960;5.582;2023-04-23T00:08:59;16.60;57.00
71237;DHT22;58984;51.960;5.582;2023-04-23T00:11:26;16.50;56.80
71237;DHT22;58984;51.960;5.582;2023-04-23T00:13:52;16.50;57.00
71237;DHT22;58984;51.960;5.582;2023-04-23T00:16:19;16.50;57.00
71237;DHT22;58984;51.960;5.582;2023-04-23T00:18:45;16.50;57.00
71237;DHT22;58984;51.960;5.582;2023-04-23T00:21:11;16.50;57.00
71237;DHT22;58984;51.960;5.582;2023-04-23T00:23:38;16.50;57.00
71237;DHT22;58984;51.960;5.582;2023-04-23T00:26:04;16.50;57.00
71237;DHT22;58984;51.960;5.582;2023-04-23T00:28:29;16.50;56.90
71237;DHT22;58984;51.960;5.582;2023-04-23T00:30:55;16.50;57.00
71237;DHT22;58984;51.960;5.582;2023-04-23T00:33:21;16.50;57.00
71237;DHT22;58984;51.960;5.582;2023-04-23T00:35:46;16.40;56.90
71237;DHT22;58984;51.960;5.582;2023-04-23T00:38:12;16.40;56.90
71237;DHT22;58984;51.960;5.582;2023-04-23T00:40:37;16.40;56.90
71237;DHT22;58984;51.960;5.582;2023-04-23T00:43:03;16.40;56.90
71237;DHT22;58984;51.960;5.582;2023-04-23T00:45:29;16.40;56.90
71237;DHT22;58984;51.960;5.582;2023-04-23T00:47:55;16.40;56.90
71237;DHT22;58984;51.960;5.582;2023-04-23T00:50:21;16.40;57.00
71237;DHT22;58984;51.960;5.582;2023-04-23T00:52:46;16.40;56.90
71237;DHT22;58984;51.960;5.582;2023-04-23T00:55:12;16.40;57.00
71237;DHT22;58984;51.960;5.582;2023-04-23T00:57:38;16.40;56.90
71237;DHT22;58984;51.960;5.582;2023-04-23T01:00:05;16.40;57.00
71237;DHT22;58984;51.960;5.582;2023-04-23T01:02:31;16.40;57.00
71237;DHT22;58984;51.960;5.582;2023-04-23T01:05:00;16.30;57.00
71237;DHT22;58984;51.960;5.582;2023-04-23T01:07:28;16.30;56.90
71237;DHT22;58984;51.960;5.582;2023-04-23T01:09:54;16.30;57.00
71237;DHT22;58984;51.960;5.582;2023-04-23T01:12:20;16.30;57.00
71237;DHT22;58984;51.960;5.582;2023-04-23T01:14:45;16.30;57.00
71237;DHT22;58984;51.960;5.582;2023-04-23T01:17:12;16.30;57.10
71237;DHT22;58984;51.960;5.582;2023-04-23T01:19:38;16.30;57.00
71237;DHT22;58984;51.960;5.582;2023-04-23T01:22:12;16.30;57.20
71237;DHT22;58984;51.960;5.582;2023-04-23T01:24:38;16.20;57.20
71237;DHT22;58984;51.960;5.582;2023-04-23T01:27:05;16.30;57.20
71237;DHT22;58984;51.960;5.582;2023-04-23T01:29:32;16.20;57.20
71237;DHT22;58984;51.960;5.582;2023-04-23T01:31:58;16.20;57.20
71237;DHT22;58984;51.960;5.582;2023-04-23T01:34:24;16.20;57.20
71237;DHT22;58984;51.960;5.582;2023-04-23T01:36:51;16.20;57.20
71237;DHT22;58984;51.960;5.582;2023-04-23T01:39:17;16.20;57.20
71237;DHT22;58984;51.960;5.582;2023-04-23T01:41:42;16.30;57.20
71237;DHT22;58984;51.960;5.582;2023-04-23T01:44:09;16.20;57.20
71237;DHT22;58984;51.960;5.582;2023-04-23T01:46:35;16.20;57.20
71237;DHT22;58984;51.960;5.582;2023-04-23T01:49:01;16.20;57.20
71237;DHT22;58984;51.960;5.582;2023-04-23T01:51:28;16.20;57.20
71237;DHT22;58984;51.960;5.582;2023-04-23T01:53:53;16.20;57.20
71237;DHT22;58984;51.960;5.582;2023-04-23T01:56:22;16.20;57.20
71237;DHT22;58984;51.960;5.582;2023-04-23T01:58:49;16.10;57.10
71237;DHT22;58984;51.960;5.582;2023-04-23T02:01:16;16.20;57.20
71237;DHT22;58984;51.960;5.582;2023-04-23T02:03:41;16.20;57.20
71237;DHT22;58984;51.960;5.582;2023-04-23T02:06:07;16.20;57.20
71237;DHT22;58984;51.960;5.582;2023-04-23T02:08:33;16.10;57.10
71237;DHT22;58984;51.960;5.582;2023-04-23T02:10:58;16.10;57.80
71237;DHT22;58984;51.960;5.582;2023-04-23T02:13:24;16.20;57.20
71237;DHT22;58984;51.960;5.582;2023-04-23T02:15:49;16.20;57.20
71237;DHT22;58984;51.960;5.582;2023-04-23T02:18:15;16.10;57.20
71237;DHT22;58984;51.960;5.582;2023-04-23T02:20:40;16.10;57.30
71237;DHT22;58984;51.960;5.582;2023-04-23T02:23:07;16.10;57.20
71237;DHT22;58984;51.960;5.582;2023-04-23T02:25:33;16.10;57.30
71237;DHT22;58984;51.960;5.582;2023-04-23T02:27:58;16.10;57.30
71237;DHT22;58984;51.960;5.582;2023-04-23T02:30:26;16.10;57.30
71237;DHT22;58984;51.960;5.582;2023-04-23T02:32:51;16.10;57.30
71237;DHT22;58984;51.960;5.582;2023-04-23T02:35:17;16.10;57.40
71237;DHT22;58984;51.960;5.582;2023-04-23T02:37:43;16.10;57.40
71237;DHT22;58984;51.960;5.582;2023-04-23T02:40:09;16.10;57.40
71237;DHT22;58984;51.960;5.582;2023-04-23T02:42:34;16.10;57.40
71237;DHT22;58984;51.960;5.582;2023-04-23T02:45:00;16.00;57.30
71237;DHT22;58984;51.960;5.582;2023-04-23T02:47:25;16.10;57.50
71237;DHT22;58984;51.960;5.582;2023-04-23T02:49:51;16.10;57.50
71237;DHT22;58984;51.960;5.582;2023-04-23T02:52:17;16.10;57.40
71237;DHT22;58984;51.960;5.582;2023-04-23T02:54:42;16.10;57.50
71237;DHT22;58984;51.960;5.582;2023-04-23T02:57:08;16.00;57.50
71237;DHT22;58984;51.960;5.582;2023-04-23T02:59:34;16.00;57.40
71237;DHT22;58984;51.960;5.582;2023-04-23T03:01:59;16.00;57.40
71237;DHT22;58984;51.960;5.582;2023-04-23T03:04:25;16.00;57.40
71237;DHT22;58984;51.960;5.582;2023-04-23T03:06:51;16.00;57.40
71237;DHT22;58984;51.960;5.582;2023-04-23T03:09:16;16.00;57.40
71237;DHT22;58984;51.960;5.582;2023-04-23T03:11:42;16.00;57.40
71237;DHT22;58984;51.960;5.582;2023-04-23T03:14:08;16.00;57.50
71237;DHT22;58984;51.960;5.582;2023-04-23T03:16:34;16.00;57.40
71237;DHT22;58984;51.960;5.582;2023-04-23T03:18:59;16.00;57.40
71237;DHT22;58984;51.960;5.582;2023-04-23T03:21:25;16.00;57.50
71237;DHT22;58984;51.960;5.582;2023-04-23T03:23:51;15.90;57.40
71237;DHT22;58984;51.960;5.582;2023-04-23T03:26:17;15.90;57.40
71237;DHT22;58984;51.960;5.582;2023-04-23T03:28:43;16.00;57.50
71237;DHT22;58984;51.960;5.582;2023-04-23T03:31:08;16.00;57.60
71237;DHT22;58984;51.960;5.582;2023-04-23T03:33:34;15.90;57.50
71237;DHT22;58984;51.960;5.582;2023-04-23T03:35:59;15.90;57.50
71237;DHT22;58984;51.960;5.582;2023-04-23T03:38:25;16.00;57.50
71237;DHT22;58984;51.960;5.582;2023-04-23T03:40:51;15.90;57.50
71237;DHT22;58984;51.960;5.582;2023-04-23T03:43:17;15.90;57.50
71237;DHT22;58984;51.960;5.582;2023-04-23T03:45:42;15.90;57.50
71237;DHT22;58984;51.960;5.582;2023-04-23T03:48:08;15.90;57.50
71237;DHT22;58984;51.960;5.582;2023-04-23T03:50:33;15.90;57.50
71237;DHT22;58984;51.960;5.582;2023-04-23T03:53:03;15.90;57.50
71237;DHT22;58984;51.960;5.582;2023-04-23T03:55:29;15.90;57.50
71237;DHT22;58984;51.960;5.582;2023-04-23T03:57:54;15.90;57.50
71237;DHT22;58984;51.960;5.582;2023-04-23T04:00:20;15.90;57.50
71237;DHT22;58984;51.960;5.582;2023-04-23T04:02:46;15.90;57.50
71237;DHT22;58984;51.960;5.582;2023-04-23T04:05:11;15.90;57.60
71237;DHT22;58984;51.960;5.582;2023-04-23T04:07:37;15.90;57.60
71237;DHT22;58984;51.960;5.582;2023-04-23T04:10:04;15.90;57.50
71237;DHT22;58984;51.960;5.582;2023-04-23T04:12:30;15.90;57.60
71237;DHT22;58984;51.960;5.582;2023-04-23T04:14:56;15.90;57.50
71237;DHT22;58984;51.960;5.582;2023-04-23T04:17:21;15.90;57.50
71237;DHT22;58984;51.960;5.582;2023-04-23T04:19:47;15.90;57.60
71237;DHT22;58984;51.960;5.582;2023-04-23T04:22:13;15.90;57.50
71237;DHT22;58984;51.960;5.582;2023-04-23T04:24:39;15.80;57.50
71237;DHT22;58984;51.960;5.582;2023-04-23T04:27:06;15.80;57.50
71237;DHT22;58984;51.960;5.582;2023-04-23T04:29:31;15.80;57.50
71237;DHT22;58984;51.960;5.582;2023-04-23T04:31:57;15.80;57.50
71237;DHT22;58984;51.960;5.582;2023-04-23T04:34:24;15.80;57.50
71237;DHT22;58984;51.960;5.582;2023-04-23T04:36:49;15.80;57.60
71237;DHT22;58984;51.960;5.582;2023-04-23T04:39:18;15.80;57.60
71237;DHT22;58984;51.960;5.582;2023-04-23T04:41:44;15.80;57.50
71237;DHT22;58984;51.960;5.582;2023-04-23T04:44:10;15.80;57.60
71237;DHT22;58984;51.960;5.582;2023-04-23T04:46:35;15.80;57.60
71237;DHT22;58984;51.960;5.582;2023-04-23T04:49:08;15.80;57.60
71237;DHT22;58984;51.960;5.582;2023-04-23T04:51:34;15.70;57.50
71237;DHT22;58984;51.960;5.582;2023-04-23T04:54:00;15.70;57.60
71237;DHT22;58984;51.960;5.582;2023-04-23T04:56:26;15.70;57.60
71237;DHT22;58984;51.960;5.582;2023-04-23T04:58:52;15.70;57.50
71237;DHT22;58984;51.960;5.582;2023-04-23T05:01:17;15.80;57.60
71237;DHT22;58984;51.960;5.582;2023-04-23T05:03:44;15.80;57.70
71237;DHT22;58984;51.960;5.582;2023-04-23T05:06:10;15.70;57.70
71237;DHT22;58984;51.960;5.582;2023-04-23T05:08:36;15.70;57.60
71237;DHT22;58984;51.960;5.582;2023-04-23T05:11:01;15.80;57.70
71237;DHT22;58984;51.960;5.582;2023-04-23T05:13:28;15.70;57.70
71237;DHT22;58984;51.960;5.582;2023-04-23T05:15:54;15.70;57.70
71237;DHT22;58984;51.960;5.582;2023-04-23T05:18:19;15.70;58.40
71237;DHT22;58984;51.960;5.582;2023-04-23T05:20:45;15.70;57.70
71237;DHT22;58984;51.960;5.582;2023-04-23T05:23:11;15.70;57.70
71237;DHT22;58984;51.960;5.582;2023-04-23T05:25:37;15.70;57.80
71237;DHT22;58984;51.960;5.582;2023-04-23T05:28:02;15.70;57.80
71237;DHT22;58984;51.960;5.582;2023-04-23T05:30:28;15.70;57.80
71237;DHT22;58984;51.960;5.582;2023-04-23T05:32:54;15.70;57.90
71237;DHT22;58984;51.960;5.582;2023-04-23T05:35:20;15.70;57.90
71237;DHT22;58984;51.960;5.582;2023-04-23T05:37:46;15.70;57.90
71237;DHT22;58984;51.960;5.582;2023-04-23T05:40:11;15.70;57.80
71237;DHT22;58984;51.960;5.582;2023-04-23T05:42:37;15.70;57.80
71237;DHT22;58984;51.960;5.582;2023-04-23T05:45:03;15.70;57.90
71237;DHT22;58984;51.960;5.582;2023-04-23T05:47:29;15.70;57.80
71237;DHT22;58984;51.960;5.582;2023-04-23T05:49:55;15.70;57.90
71237;DHT22;58984;51.960;5.582;2023-04-23T05:52:23;15.70;57.90
71237;DHT22;58984;51.960;5.582;2023-04-23T05:54:49;15.70;57.90
71237;DHT22;58984;51.960;5.582;2023-04-23T05:57:16;15.70;57.90
71237;DHT22;58984;51.960;5.582;2023-04-23T05:59:41;15.70;57.90
71237;DHT22;58984;51.960;5.582;2023-04-23T06:02:08;15.70;57.90
71237;DHT22;58984;51.960;5.582;2023-04-23T06:04:35;15.60;57.90
71237;DHT22;58984;51.960;5.582;2023-04-23T06:07:01;15.70;57.90
71237;DHT22;58984;51.960;5.582;2023-04-23T06:09:26;15.70;57.90
71237;DHT22;58984;51.960;5.582;2023-04-23T06:11:52;15.70;58.10
71237;DHT22;58984;51.960;5.582;2023-04-23T06:14:18;15.70;58.10
71237;DHT22;58984;51.960;5.582;2023-04-23T06:16:44;15.70;58.10
71237;DHT22;58984;51.960;5.582;2023-04-23T06:19:10;15.60;58.00
71237;DHT22;58984;51.960;5.582;2023-04-23T06:21:36;15.70;58.10
71237;DHT22;58984;51.960;5.582;2023-04-23T06:24:01;15.70;58.10
71237;DHT22;58984;51.960;5.582;2023-04-23T06:26:27;15.70;58.10
71237;DHT22;58984;51.960;5.582;2023-04-23T06:28:52;15.70;58.10
71237;DHT22;58984;51.960;5.582;2023-04-23T06:31:18;15.70;58.20
71237;DHT22;58984;51.960;5.582;2023-04-23T06:33:44;15.70;58.20
71237;DHT22;58984;51.960;5.582;2023-04-23T06:36:09;15.70;58.20
71237;DHT22;58984;51.960;5.582;2023-04-23T06:38:36;15.70;58.20
71237;DHT22;58984;51.960;5.582;2023-04-23T06:41:02;15.70;58.40
71237;DHT22;58984;51.960;5.582;2023-04-23T06:43:28;15.60;58.30
71237;DHT22;58984;51.960;5.582;2023-04-23T06:45:54;15.70;59.00
71237;DHT22;58984;51.960;5.582;2023-04-23T06:48:20;15.70;58.40
71237;DHT22;58984;51.960;5.582;2023-04-23T06:50:47;15.70;58.40
71237;DHT22;58984;51.960;5.582;2023-04-23T06:53:13;15.70;58.50
71237;DHT22;58984;51.960;5.582;2023-04-23T06:55:38;15.70;58.60
71237;DHT22;58984;51.960;5.582;2023-04-23T06:58:04;15.70;58.60
71237;DHT22;58984;51.960;5.582;2023-04-23T07:00:31;15.70;58.70
71237;DHT22;58984;51.960;5.582;2023-04-23T07:02:57;15.70;58.70
71237;DHT22;58984;51.960;5.582;2023-04-23T07:05:23;15.80;58.80
71237;DHT22;58984;51.960;5.582;2023-04-23T07:07:48;15.80;58.90
71237;DHT22;58984;51.960;5.582;2023-04-23T07:10:14;15.80;58.80
71237;DHT22;58984;51.960;5.582;2023-04-23T07:12:40;15.80;58.90
71237;DHT22;58984;51.960;5.582;2023-04-23T07:15:06;15.80;58.90
71237;DHT22;58984;51.960;5.582;2023-04-23T07:17:33;15.80;59.10
71237;DHT22;58984;51.960;5.582;2023-04-23T07:19:58;15.90;59.20
71237;DHT22;58984;51.960;5.582;2023-04-23T07:22:27;15.90;59.20
71237;DHT22;58984;51.960;5.582;2023-04-23T07:24:52;15.90;59.20
71237;DHT22;58984;51.960;5.582;2023-04-23T07:27:18;15.90;59.30
71237;DHT22;58984;51.960;5.582;2023-04-23T07:29:44;15.90;59.20
71237;DHT22;58984;51.960;5.582;2023-04-23T07:32:09;15.90;59.20
71237;DHT22;58984;51.960;5.582;2023-04-23T07:34:35;16.00;59.30
71237;DHT22;58984;51.960;5.582;2023-04-23T07:37:01;16.00;59.20
71237;DHT22;58984;51.960;5.582;2023-04-23T07:39:27;16.00;59.30
71237;DHT22;58984;51.960;5.582;2023-04-23T07:41:53;16.10;59.30
71237;DHT22;58984;51.960;5.582;2023-04-23T07:44:18;16.10;59.30
71237;DHT22;58984;51.960;5.582;2023-04-23T07:46:44;16.10;59.40
71237;DHT22;58984;51.960;5.582;2023-04-23T07:49:09;16.10;59.40
71237;DHT22;58984;51.960;5.582;2023-04-23T07:51:35;16.20;59.40
71237;DHT22;58984;51.960;5.582;2023-04-23T07:54:01;16.20;59.40
71237;DHT22;58984;51.960;5.582;2023-04-23T07:56:26;16.20;59.40
71237;DHT22;58984;51.960;5.582;2023-04-23T07:58:52;16.30;59.50
71237;DHT22;58984;51.960;5.582;2023-04-23T08:01:22;16.30;59.00
71237;DHT22;58984;51.960;5.582;2023-04-23T08:03:48;16.30;59.60
71237;DHT22;58984;51.960;5.582;2023-04-23T08:06:13;16.30;59.50
71237;DHT22;58984;51.960;5.582;2023-04-23T08:08:39;16.40;59.60
71237;DHT22;58984;51.960;5.582;2023-04-23T08:11:05;16.40;59.70
71237;DHT22;58984;51.960;5.582;2023-04-23T08:13:31;16.40;59.70
71237;DHT22;58984;51.960;5.582;2023-04-23T08:15:57;16.50;59.70
71237;DHT22;58984;51.960;5.582;2023-04-23T08:18:22;16.50;59.70
71237;DHT22;58984;51.960;5.582;2023-04-23T08:20:48;16.60;60.00
71237;DHT22;58984;51.960;5.582;2023-04-23T08:23:14;16.60;60.00
71237;DHT22;58984;51.960;5.582;2023-04-23T08:25:40;16.70;60.30
71237;DHT22;58984;51.960;5.582;2023-04-23T08:28:06;16.70;60.40
71237;DHT22;58984;51.960;5.582;2023-04-23T08:30:31;16.70;60.50
71237;DHT22;58984;51.960;5.582;2023-04-23T08:32:57;16.80;60.60
71237;DHT22;58984;51.960;5.582;2023-04-23T08:35:23;16.90;60.60
71237;DHT22;58984;51.960;5.582;2023-04-23T08:37:48;16.90;60.60
71237;DHT22;58984;51.960;5.582;2023-04-23T08:40:14;17.00;60.60
71237;DHT22;58984;51.960;5.582;2023-04-23T08:42:56;17.00;60.80
71237;DHT22;58984;51.960;5.582;2023-04-23T08:45:23;17.00;61.00
71237;DHT22;58984;51.960;5.582;2023-04-23T08:47:49;17.10;60.90
71237;DHT22;58984;51.960;5.582;2023-04-23T08:50:16;17.10;60.90
71237;DHT22;58984;51.960;5.582;2023-04-23T08:52:54;17.20;61.00
71237;DHT22;58984;51.960;5.582;2023-04-23T08:55:20;17.20;61.20
71237;DHT22;58984;51.960;5.582;2023-04-23T08:57:47;17.20;61.10
71237;DHT22;58984;51.960;5.582;2023-04-23T09:00:14;17.30;61.30
71237;DHT22;58984;51.960;5.582;2023-04-23T09:02:42;17.40;61.40
71237;DHT22;58984;51.960;5.582;2023-04-23T09:05:08;17.40;61.50
71237;DHT22;58984;51.960;5.582;2023-04-23T09:07:34;17.40;61.40
71237;DHT22;58984;51.960;5.582;2023-04-23T09:10:01;17.50;61.50
71237;DHT22;58984;51.960;5.582;2023-04-23T09:12:27;17.50;61.70
71237;DHT22;58984;51.960;5.582;2023-04-23T09:14:53;17.60;61.70
71237;DHT22;58984;51.960;5.582;2023-04-23T09:17:20;17.60;61.70
71237;DHT22;58984;51.960;5.582;2023-04-23T09:19:45;17.70;61.80
71237;DHT22;58984;51.960;5.582;2023-04-23T09:22:11;17.70;62.50
71237;DHT22;58984;51.960;5.582;2023-04-23T09:24:40;17.80;61.70
71237;DHT22;58984;51.960;5.582;2023-04-23T09:27:07;17.80;61.80
71237;DHT22;58984;51.960;5.582;2023-04-23T09:29:33;17.90;62.50
71237;DHT22;58984;51.960;5.582;2023-04-23T09:32:06;18.00;61.80
71237;DHT22;58984;51.960;5.582;2023-04-23T09:34:35;18.00;61.80
71237;DHT22;58984;51.960;5.582;2023-04-23T09:37:02;18.10;61.70
71237;DHT22;58984;51.960;5.582;2023-04-23T09:39:28;18.20;61.60
71237;DHT22;58984;51.960;5.582;2023-04-23T09:41:54;18.20;61.80
71237;DHT22;58984;51.960;5.582;2023-04-23T09:44:30;18.20;61.60
71237;DHT22;58984;51.960;5.582;2023-04-23T09:47:05;18.20;61.70
71237;DHT22;58984;51.960;5.582;2023-04-23T09:49:44;18.30;61.80
71237;DHT22;58984;51.960;5.582;2023-04-23T09:52:10;18.30;61.60
71237;DHT22;58984;51.960;5.582;2023-04-23T09:54:35;18.40;61.60
71237;DHT22;58984;51.960;5.582;2023-04-23T09:57:01;18.50;61.70
71237;DHT22;58984;51.960;5.582;2023-04-23T09:59:33;18.50;61.60
71237;DHT22;58984;51.960;5.582;2023-04-23T10:02:05;18.60;61.50
71237;DHT22;58984;51.960;5.582;2023-04-23T10:04:32;18.60;61.50
71237;DHT22;58984;51.960;5.582;2023-04-23T10:07:00;18.70;61.40
71237;DHT22;58984;51.960;5.582;2023-04-23T10:09:27;18.70;61.20
71237;DHT22;58984;51.960;5.582;2023-04-23T10:12:01;18.80;61.20
71237;DHT22;58984;51.960;5.582;2023-04-23T10:14:27;18.80;61.30
71237;DHT22;58984;51.960;5.582;2023-04-23T10:16:59;18.90;61.30
71237;DHT22;58984;51.960;5.582;2023-04-23T10:19:25;18.90;61.40
71237;DHT22;58984;51.960;5.582;2023-04-23T10:22:04;19.00;61.40
71237;DHT22;58984;51.960;5.582;2023-04-23T10:24:39;18.90;61.00
71237;DHT22;58984;51.960;5.582;2023-04-23T10:27:10;19.00;60.80
71237;DHT22;58984;51.960;5.582;2023-04-23T10:29:36;19.10;60.70
71237;DHT22;58984;51.960;5.582;2023-04-23T10:32:03;19.20;60.70
71237;DHT22;58984;51.960;5.582;2023-04-23T10:34:31;19.20;59.90
71237;DHT22;58984;51.960;5.582;2023-04-23T10:36:58;19.30;59.80
71237;DHT22;58984;51.960;5.582;2023-04-23T10:39:27;19.30;59.60
71237;DHT22;58984;51.960;5.582;2023-04-23T10:41:54;19.40;59.60
71237;DHT22;58984;51.960;5.582;2023-04-23T10:44:21;19.40;59.60
71237;DHT22;58984;51.960;5.582;2023-04-23T10:46:52;19.40;59.60
71237;DHT22;58984;51.960;5.582;2023-04-23T10:49:18;19.40;59.40
71237;DHT22;58984;51.960;5.582;2023-04-23T10:51:46;19.50;60.00
71237;DHT22;58984;51.960;5.582;2023-04-23T10:54:15;19.50;59.10
71237;DHT22;58984;51.960;5.582;2023-04-23T10:56:42;19.50;58.90
71237;DHT22;58984;51.960;5.582;2023-04-23T10:59:18;19.50;59.10
71237;DHT22;58984;51.960;5.582;2023-04-23T11:01:51;19.40;58.80
71237;DHT22;58984;51.960;5.582;2023-04-23T11:04:24;19.50;58.70
71237;DHT22;58984;51.960;5.582;2023-04-23T11:06:52;19.50;58.80
71237;DHT22;58984;51.960;5.582;2023-04-23T11:09:29;19.60;59.00
71237;DHT22;58984;51.960;5.582;2023-04-23T11:11:55;19.50;59.10
71237;DHT22;58984;51.960;5.582;2023-04-23T11:14:36;19.60;59.00
71237;DHT22;58984;51.960;5.582;2023-04-23T11:17:03;19.60;59.20
71237;DHT22;58984;51.960;5.582;2023-04-23T11:19:29;19.60;59.00
71237;DHT22;58984;51.960;5.582;2023-04-23T11:22:04;19.60;59.60
71237;DHT22;58984;51.960;5.582;2023-04-23T11:24:38;19.60;58.70
71237;DHT22;58984;51.960;5.582;2023-04-23T11:27:08;19.70;58.80
71237;DHT22;58984;51.960;5.582;2023-04-23T11:29:36;19.70;58.50
71237;DHT22;58984;51.960;5.582;2023-04-23T11:32:02;19.70;58.30
71237;DHT22;58984;51.960;5.582;2023-04-23T11:34:30;19.80;58.30
71237;DHT22;58984;51.960;5.582;2023-04-23T11:36:58;19.80;58.30
71237;DHT22;58984;51.960;5.582;2023-04-23T11:39:24;19.80;58.30
71237;DHT22;58984;51.960;5.582;2023-04-23T11:41:50;19.80;58.00
71237;DHT22;58984;51.960;5.582;2023-04-23T11:44:17;19.80;57.80
71237;DHT22;58984;51.960;5.582;2023-04-23T11:46:45;19.90;58.00
71237;DHT22;58984;51.960;5.582;2023-04-23T11:49:12;19.90;57.90
71237;DHT22;58984;51.960;5.582;2023-04-23T11:51:42;19.90;58.00
71237;DHT22;58984;51.960;5.582;2023-04-23T11:54:08;19.80;57.80
71237;DHT22;58984;51.960;5.582;2023-04-23T11:56:35;19.90;57.90
71237;DHT22;58984;51.960;5.582;2023-04-23T11:59:02;19.90;57.90
71237;DHT22;58984;51.960;5.582;2023-04-23T12:01:49;19.90;57.90
71237;DHT22;58984;51.960;5.582;2023-04-23T12:04:23;19.90;57.90
71237;DHT22;58984;51.960;5.582;2023-04-23T12:06:51;19.90;57.80
71237;DHT22;58984;51.960;5.582;2023-04-23T12:09:20;20.00;57.80
71237;DHT22;58984;51.960;5.582;2023-04-23T12:11:46;20.00;58.60
71237;DHT22;58984;51.960;5.582;2023-04-23T12:14:15;20.00;57.80
71237;DHT22;58984;51.960;5.582;2023-04-23T12:16:44;20.00;57.70
71237;DHT22;58984;51.960;5.582;2023-04-23T12:19:20;20.00;57.50
71237;DHT22;58984;51.960;5.582;2023-04-23T12:21:55;19.90;57.40
71237;DHT22;58984;51.960;5.582;2023-04-23T12:24:22;19.90;57.10
71237;DHT22;58984;51.960;5.582;2023-04-23T12:26:52;20.00;57.30
71237;DHT22;58984;51.960;5.582;2023-04-23T12:29:20;20.00;57.20
71237;DHT22;58984;51.960;5.582;2023-04-23T12:31:47;20.00;57.30
71237;DHT22;58984;51.960;5.582;2023-04-23T12:34:13;20.00;57.40
71237;DHT22;58984;51.960;5.582;2023-04-23T12:36:50;20.00;57.50
71237;DHT22;58984;51.960;5.582;2023-04-23T12:41:45;20.00;57.30
71237;DHT22;58984;51.960;5.582;2023-04-23T12:44:10;20.10;57.30
71237;DHT22;58984;51.960;5.582;2023-04-23T12:46:36;20.00;57.20
71237;DHT22;58984;51.960;5.582;2023-04-23T12:49:02;20.10;57.10
71237;DHT22;58984;51.960;5.582;2023-04-23T12:51:27;20.10;57.20
71237;DHT22;58984;51.960;5.582;2023-04-23T12:53:53;20.10;57.10
71237;DHT22;58984;51.960;5.582;2023-04-23T12:56:19;20.10;57.00
71237;DHT22;58984;51.960;5.582;2023-04-23T12:58:45;20.10;56.90
71237;DHT22;58984;51.960;5.582;2023-04-23T13:01:10;20.10;57.00
71237;DHT22;58984;51.960;5.582;2023-04-23T13:03:38;20.10;57.10
71237;DHT22;58984;51.960;5.582;2023-04-23T13:06:04;20.20;57.10
71237;DHT22;58984;51.960;5.582;2023-04-23T13:08:32;20.10;56.80
71237;DHT22;58984;51.960;5.582;2023-04-23T13:10:57;20.20;56.70
71237;DHT22;58984;51.960;5.582;2023-04-23T13:13:23;20.20;56.60
71237;DHT22;58984;51.960;5.582;2023-04-23T13:15:49;20.20;56.60
71237;DHT22;58984;51.960;5.582;2023-04-23T13:18:15;20.20;56.60
71237;DHT22;58984;51.960;5.582;2023-04-23T13:20:40;20.20;56.70
71237;DHT22;58984;51.960;5.582;2023-04-23T13:23:07;20.20;56.70
71237;DHT22;58984;51.960;5.582;2023-04-23T13:25:33;20.20;56.80
71237;DHT22;58984;51.960;5.582;2023-04-23T13:27:59;20.20;56.80
71237;DHT22;58984;51.960;5.582;2023-04-23T13:30:25;20.20;56.70
71237;DHT22;58984;51.960;5.582;2023-04-23T13:32:50;20.20;56.80
71237;DHT22;58984;51.960;5.582;2023-04-23T13:35:16;20.20;56.70
71237;DHT22;58984;51.960;5.582;2023-04-23T13:37:42;20.20;56.70
71237;DHT22;58984;51.960;5.582;2023-04-23T13:40:08;20.20;56.40
71237;DHT22;58984;51.960;5.582;2023-04-23T13:42:33;20.20;56.60
71237;DHT22;58984;51.960;5.582;2023-04-23T13:44:59;20.20;56.70
71237;DHT22;58984;51.960;5.582;2023-04-23T13:47:26;20.20;56.70
71237;DHT22;58984;51.960;5.582;2023-04-23T13:49:55;20.20;56.70
71237;DHT22;58984;51.960;5.582;2023-04-23T13:52:21;20.20;56.60
71237;DHT22;58984;51.960;5.582;2023-04-23T13:54:47;20.20;56.60
71237;DHT22;58984;51.960;5.582;2023-04-23T13:57:13;20.20;56.70
71237;DHT22;58984;51.960;5.582;2023-04-23T13:59:39;20.20;56.70
71237;DHT22;58984;51.960;5.582;2023-04-23T14:02:05;20.20;56.80
71237;DHT22;58984;51.960;5.582;2023-04-23T14:04:31;20.20;56.70
71237;DHT22;58984;51.960;5.582;2023-04-23T14:06:56;20.20;56.30
71237;DHT22;58984;51.960;5.582;2023-04-23T14:09:22;20.20;56.20
71237;DHT22;58984;51.960;5.582;2023-04-23T14:11:48;20.20;56.30
71237;DHT22;58984;51.960;5.582;2023-04-23T14:14:13;20.20;56.30
71237;DHT22;58984;51.960;5.582;2023-04-23T14:16:39;20.20;56.00
71237;DHT22;58984;51.960;5.582;2023-04-23T14:19:05;20.20;55.90
71237;DHT22;58984;51.960;5.582;2023-04-23T14:21:30;20.20;56.00
71237;DHT22;58984;51.960;5.582;2023-04-23T14:26:41;20.10;56.00
71237;DHT22;58984;51.960;5.582;2023-04-23T14:31:42;20.20;55.90
71237;DHT22;58984;51.960;5.582;2023-04-23T14:34:08;20.10;55.60
71237;DHT22;58984;51.960;5.582;2023-04-23T14:36:33;20.20;55.60
71237;DHT22;58984;51.960;5.582;2023-04-23T14:38:59;20.10;55.40
71237;DHT22;58984;51.960;5.582;2023-04-23T14:41:32;20.20;55.60
71237;DHT22;58984;51.960;5.582;2023-04-23T14:44:01;20.10;55.30
71237;DHT22;58984;51.960;5.582;2023-04-23T14:46:27;20.10;55.20
71237;DHT22;58984;51.960;5.582;2023-04-23T14:48:53;20.10;55.20
71237;DHT22;58984;51.960;5.582;2023-04-23T14:51:19;20.10;55.30
71237;DHT22;58984;51.960;5.582;2023-04-23T14:53:45;20.10;55.20
71237;DHT22;58984;51.960;5.582;2023-04-23T14:56:10;20.00;55.30
71237;DHT22;58984;51.960;5.582;2023-04-23T14:58:36;20.10;55.60
71237;DHT22;58984;51.960;5.582;2023-04-23T15:01:02;20.10;56.00
71237;DHT22;58984;51.960;5.582;2023-04-23T15:03:28;20.10;56.30
71237;DHT22;58984;51.960;5.582;2023-04-23T15:05:53;20.10;56.50
71237;DHT22;58984;51.960;5.582;2023-04-23T15:08:19;20.00;56.60
71237;DHT22;58984;51.960;5.582;2023-04-23T15:10:46;20.00;56.80
71237;DHT22;58984;51.960;5.582;2023-04-23T15:15:48;20.00;57.30
71237;DHT22;58984;51.960;5.582;2023-04-23T15:18:14;19.90;57.50
71237;DHT22;58984;51.960;5.582;2023-04-23T15:20:41;19.90;57.50
71237;DHT22;58984;51.960;5.582;2023-04-23T15:23:08;19.90;57.70
71237;DHT22;58984;51.960;5.582;2023-04-23T15:25:34;19.90;57.80
71237;DHT22;58984;51.960;5.582;2023-04-23T15:28:02;19.80;57.80
71237;DHT22;58984;51.960;5.582;2023-04-23T15:30:28;19.80;57.80
71237;DHT22;58984;51.960;5.582;2023-04-23T15:32:55;19.80;57.80
71237;DHT22;58984;51.960;5.582;2023-04-23T15:35:25;19.80;58.10
71237;DHT22;58984;51.960;5.582;2023-04-23T15:37:51;19.70;58.20